Gt Bend, New York
Current Conditions -  °F | °C
As of 12:58 PM on Friday 21 Nov 2014 (Local Time) from KGTB Reporting Station
Clear Clear  
Wind Chill: 16°   Ceiling: Unl
Heat Index: 22°   Visibility: 10mi
Dew Point:   Wind: 5mph
Humidity: 49%   Direction: NA
Pressure: 30.3"   Gusts: NA
Location:  44.0344°N, 75.7193°W
Report Text: KGTB 211758Z AUTO VRB04KT 10SM CLR M05/M15 A3030 RMK AO2 SLP272 T10541146 11054 21096 51016
Loading
Personal Weather Stations






























Interactive Weather Map New forecast layout! Learn more

10-Day Weather Forecast

Advertisements
Track Severe Weather on mobile